Hovedside
METAR-TAF:

METAR-TAF

Lufthavner :

Damaskus, Syria

breddegrad: 33-25N, lengdegrad: 036-31E, høyde over havet: 608 m

Gjeldene værobservasjon

Denne rapporten ble laget for 50 minutter siden, klokken 17:00 UTC
Vind 14 kt fra Vest
Temperatur 27°C
Luftfuktighet 21%
Trykk 1010 hPa
Sikt 10 km eller mer
ingen skyer under 1500 m og ingen bygeskyer

METAR: OSDI 231700Z 27014KT CAVOK 27/03 Q1010

Tid: 20:50 (17:50 UTC)

Varsel

Denne rapporten ble laget for 1 time og 50 minutter siden, klokken 16:00 UTC
Varsel gyldig fra 23. klokken 18 UTC til 24. klokken 24 UTC
Vind 15 kt fra Sørvest
Sikt 10 km eller mer
ingen skyer under 1500 m og ingen bygeskyer
Midlertidig
fra 24. klokken 09 UTC til 24. klokken 18 UTC
Vind 15 kt fra Vest med vindkast opp mot 25 kt
Sikt 10 km eller mer
Få skyer i en høyde av 3000 ft

TAF: OSDI 231600Z 2318/2424 22015KT CAVOK TEMPO 2409/2418 28015G25KT 9999 FEW030

Værobservasjoner og værvarsel for over 4000 flyplasser (METAR- og TAF-rapporter).

Tilgjengelige stasjoner er representert av de røde og gule prikkene på kartet.

Hold musepekeren over prikken for å se navnet på stasjonen.

Klikk så for å se værobservasjoner og -varsler.

For å forandre kartet kan du klikke på den grønne knappen med svart kryss for å zoome inn, på den grønne knappen med strek for å zoome ut, eller på de grønne pilene for å se tilstøtende kart.


METAR-TAF: